WATT/KOE METAR and TAF weather

Enter ICAO airport designator
Station Type Date Time Source
WATT METAR 2019/07/17 04:00 UTC NOAA

WATT 170400Z 16014KT 9999 FEW020 29/18 Q1012 NOSIG


Station Type Date Time Source
WATT Decoded METAR 2019/07/17 04:00 UTC NOAA

Station name not available
Jul 17, 2019 - 12:00 AM EDT / 2019.07.17 0400 UTC
Wind: from the SSE (160 degrees) at 16 MPH (14 KT):0
Visibility: greater than 7 mile(s):0
Sky conditions: mostly clear
Temperature: 84 F (29 C)
Dew Point: 64 F (18 C)
Relative Humidity: 51%
Pressure (altimeter): 29.88 in. Hg (1012 hPa)
ob: WATT 170400Z 16014KT 9999 FEW020 29/18 Q1012 NOSIG
cycle: 4

Station Type Date Time Source
WATT TAF 2019/07/18 12:00 UTC NOAA

TAF WATT 181100Z 1812/1912 10010KT 8000 FEW020
BECMG 1901/1903 12020KT

Example: see airport list